createdAt,value
2019-03-08T00:00:22.056Z,1.00
2019-03-08T00:02:51.720Z,0.83
2019-03-08T00:05:21.360Z,0.70
2019-03-08T00:07:50.721Z,0.63
2019-03-08T00:10:19.802Z,0.67
2019-03-08T00:12:49.266Z,0.80
2019-03-08T00:15:18.324Z,0.80
2019-03-08T00:17:47.399Z,0.80
2019-03-08T00:20:16.456Z,1.00
2019-03-08T00:22:45.795Z,1.00
2019-03-08T00:25:15.282Z,1.00
2019-03-08T00:27:44.360Z,1.10
2019-03-08T00:30:13.452Z,1.20
2019-03-08T00:32:42.830Z,1.10
2019-03-08T00:35:12.313Z,1.60
2019-03-08T00:37:41.431Z,1.27
2019-03-08T00:40:10.992Z,1.10
2019-03-08T00:42:40.063Z,1.00
2019-03-08T00:45:09.863Z,1.30
2019-03-08T00:47:39.197Z,0.93
2019-03-08T00:50:08.744Z,1.30
2019-03-08T00:52:38.154Z,1.00
2019-03-08T00:55:07.332Z,0.67
2019-03-08T00:57:36.411Z,0.90
2019-03-08T01:00:10.255Z,1.00
2019-03-08T01:02:39.631Z,1.10
2019-03-08T01:05:09.775Z,0.80
2019-03-08T01:07:39.299Z,1.30
2019-03-08T01:10:10.960Z,1.03
2019-03-08T01:12:40.630Z,0.90
2019-03-08T01:15:11.202Z,1.00
2019-03-08T01:17:40.271Z,0.80
2019-03-08T01:20:10.321Z,0.93
2019-03-08T01:22:39.414Z,0.97
2019-03-08T01:25:08.741Z,1.00
2019-03-08T01:27:38.372Z,0.90
2019-03-08T01:30:09.566Z,0.70
2019-03-08T01:32:38.620Z,1.00
2019-03-08T01:35:08.336Z,0.80
2019-03-08T01:37:37.388Z,0.90
2019-03-08T01:40:07.123Z,0.90
2019-03-08T01:42:36.203Z,0.80
2019-03-08T01:45:06.539Z,0.70
2019-03-08T01:47:35.618Z,0.80
2019-03-08T01:50:05.102Z,0.83
2019-03-08T01:52:34.471Z,0.80
2019-03-08T01:55:03.717Z,1.00
2019-03-08T01:57:32.861Z,1.03
2019-03-08T02:00:01.908Z,1.00
2019-03-08T02:02:31.003Z,1.00
2019-03-08T02:05:00.358Z,0.80
2019-03-08T02:07:29.869Z,0.80
2019-03-08T02:09:59.224Z,1.07
2019-03-08T02:12:28.308Z,1.10
2019-03-08T02:14:57.363Z,0.80
2019-03-08T02:17:26.785Z,0.90
2019-03-08T02:19:55.833Z,0.60
2019-03-08T02:22:25.283Z,0.70
2019-03-08T02:24:55.046Z,0.83
2019-03-08T02:27:24.139Z,0.80
2019-03-08T02:29:53.340Z,0.60
2019-03-08T02:32:22.411Z,0.53
2019-03-08T02:34:51.454Z,0.63
2019-03-08T02:37:20.686Z,0.60
2019-03-08T02:39:50.059Z,1.30
2019-03-08T02:42:19.121Z,0.77
2019-03-08T02:44:48.183Z,0.70
2019-03-08T02:47:17.247Z,0.80
2019-03-08T02:49:46.647Z,0.63
2019-03-08T02:52:15.721Z,0.60
2019-03-08T02:54:45.124Z,0.60
2019-03-08T02:57:14.546Z,0.60
2019-03-08T02:59:43.941Z,0.60
2019-03-08T03:02:13.066Z,0.53
2019-03-08T03:04:42.401Z,0.50
2019-03-08T03:07:11.851Z,0.70
2019-03-08T03:09:40.908Z,0.70
2019-03-08T03:12:09.988Z,0.57
2019-03-08T03:14:39.315Z,0.50
2019-03-08T03:17:08.367Z,0.60
2019-03-08T03:19:37.721Z,0.70
2019-03-08T03:22:06.791Z,0.60
2019-03-08T03:24:36.230Z,0.60
2019-03-08T03:27:05.288Z,0.50
2019-03-08T03:29:34.719Z,0.60
2019-03-08T03:32:04.067Z,0.70
2019-03-08T03:34:33.116Z,0.60
2019-03-08T03:37:02.166Z,0.63
2019-03-08T03:39:31.251Z,0.60
2019-03-08T03:42:00.643Z,0.90
2019-03-08T03:44:29.712Z,0.70
2019-03-08T03:46:59.352Z,0.90
2019-03-08T03:49:28.410Z,0.80
2019-03-08T03:51:57.518Z,0.50
2019-03-08T03:54:26.951Z,0.70
2019-03-08T03:56:56.072Z,0.67
2019-03-08T03:59:25.122Z,0.53
2019-03-08T04:01:54.510Z,0.60
2019-03-08T04:04:23.567Z,0.90
2019-03-08T04:06:52.624Z,0.70
2019-03-08T04:09:21.690Z,0.70
2019-03-08T04:11:50.756Z,0.50
2019-03-08T04:20:57.789Z,1.00
2019-03-08T04:27:07.839Z,0.60
2019-03-08T04:33:18.246Z,0.90
2019-03-08T04:36:41.340Z,0.60
2019-03-08T04:42:51.838Z,0.77
2019-03-08T04:49:02.111Z,0.80
2019-03-08T04:55:13.650Z,0.67
2019-03-08T05:01:23.795Z,0.80
2019-03-08T05:07:33.968Z,0.70
2019-03-08T05:13:44.582Z,0.60
2019-03-08T05:16:13.645Z,0.80
2019-03-08T05:18:42.707Z,1.33
2019-03-08T05:21:11.770Z,0.70
2019-03-08T05:23:40.823Z,0.73
2019-03-08T05:26:09.787Z,0.50
2019-03-08T05:28:38.899Z,0.90
2019-03-08T05:31:07.951Z,0.80
2019-03-08T05:33:37.940Z,0.67
2019-03-08T05:36:07.326Z,0.80
2019-03-08T05:38:36.403Z,0.90
2019-03-08T05:41:05.761Z,0.90
2019-03-08T05:43:34.996Z,0.90
2019-03-08T05:46:04.055Z,0.63
2019-03-08T05:48:33.106Z,0.80
2019-03-08T05:51:02.155Z,0.70
2019-03-08T05:53:31.287Z,0.70
2019-03-08T05:56:00.355Z,0.70
2019-03-08T05:58:30.261Z,1.13
2019-03-08T06:00:59.314Z,1.10
2019-03-08T06:03:28.321Z,0.70
2019-03-08T06:05:57.400Z,0.97
2019-03-08T06:08:26.790Z,1.03
2019-03-08T06:10:55.839Z,1.03
2019-03-08T06:13:25.018Z,0.80
2019-03-08T06:15:54.071Z,1.10
2019-03-08T06:18:23.154Z,1.00
2019-03-08T06:20:52.613Z,1.57
2019-03-08T06:23:21.699Z,1.10
2019-03-08T06:25:50.765Z,1.13
2019-03-08T06:28:20.037Z,1.27
2019-03-08T06:30:49.156Z,1.10
2019-03-08T06:33:18.251Z,0.87
2019-03-08T06:35:47.746Z,1.20
2019-03-08T06:38:17.444Z,1.27
2019-03-08T06:40:46.813Z,1.20
2019-03-08T06:43:16.159Z,1.40
2019-03-08T06:45:45.233Z,1.10
2019-03-08T06:48:14.611Z,1.03
2019-03-08T06:50:43.675Z,1.70
2019-03-08T06:53:12.744Z,1.40
2019-03-08T06:55:41.790Z,1.20
2019-03-08T06:58:10.954Z,1.30
2019-03-08T07:00:59.057Z,1.27
2019-03-08T07:03:28.163Z,1.10
2019-03-08T07:05:57.249Z,1.13
2019-03-08T07:08:26.482Z,1.03
2019-03-08T07:10:55.822Z,1.10
2019-03-08T07:13:24.953Z,1.33
2019-03-08T07:15:54.006Z,1.20
2019-03-08T07:18:23.134Z,1.20
2019-03-08T07:21:03.126Z,1.20
2019-03-08T07:23:45.853Z,1.00
2019-03-08T07:26:34.430Z,0.97
2019-03-08T07:29:14.907Z,0.80
2019-03-08T07:32:18.072Z,1.20
2019-03-08T07:35:04.331Z,0.97
2019-03-08T07:37:51.510Z,0.70
2019-03-08T07:40:46.046Z,1.10
2019-03-08T07:43:40.329Z,1.10
2019-03-08T07:46:38.507Z,0.93
2019-03-08T07:49:28.823Z,1.30
2019-03-08T07:52:22.713Z,1.00
2019-03-08T07:55:16.660Z,1.10
2019-03-08T07:57:56.376Z,1.70
2019-03-08T08:00:59.966Z,1.10
2019-03-08T08:03:43.558Z,1.20
2019-03-08T08:06:40.874Z,1.20
2019-03-08T08:09:29.166Z,0.90
2019-03-08T08:12:26.207Z,1.20
2019-03-08T08:15:00.971Z,0.90
2019-03-08T08:17:51.828Z,1.00
2019-03-08T08:20:42.979Z,1.00
2019-03-08T08:23:34.374Z,1.10
2019-03-08T08:26:19.610Z,1.10
2019-03-08T08:29:01.464Z,0.90
2019-03-08T08:31:53.954Z,1.33
2019-03-08T08:34:51.467Z,1.20
2019-03-08T08:37:42.375Z,1.10
2019-03-08T08:40:29.525Z,1.17
2019-03-08T08:43:06.055Z,0.93
2019-03-08T08:45:57.261Z,1.00
2019-03-08T08:48:45.382Z,1.57
2019-03-08T08:51:40.282Z,1.33
2019-03-08T08:54:31.477Z,1.13
2019-03-08T08:57:06.241Z,1.50
2019-03-08T09:00:00.526Z,2.43
2019-03-08T09:03:00.674Z,1.03
2019-03-08T09:05:34.330Z,1.17
2019-03-08T09:08:21.464Z,1.67
2019-03-08T09:10:56.768Z,1.30
2019-03-08T09:13:32.680Z,1.10
2019-03-08T09:16:21.053Z,1.43
2019-03-08T09:19:10.698Z,1.40
2019-03-08T09:21:49.455Z,1.10
2019-03-08T09:24:39.185Z,1.10
2019-03-08T09:27:27.580Z,1.60
2019-03-08T09:30:09.469Z,1.00
2019-03-08T09:33:09.751Z,1.10
2019-03-08T09:36:03.682Z,1.10
2019-03-08T09:38:51.415Z,1.33
2019-03-08T09:41:29.465Z,0.90
2019-03-08T09:44:09.359Z,1.07
2019-03-08T09:47:03.750Z,1.03
2019-03-08T09:49:43.105Z,1.40
2019-03-08T09:52:43.220Z,1.00
2019-03-08T09:55:28.548Z,0.90
2019-03-08T09:58:15.380Z,0.90
2019-03-08T10:01:16.699Z,0.90
2019-03-08T10:03:57.276Z,1.10
2019-03-08T10:06:44.360Z,1.20
2019-03-08T10:09:31.721Z,0.93
2019-03-08T10:12:35.300Z,1.10
2019-03-08T10:15:23.625Z,1.90
2019-03-08T10:18:11.600Z,1.27
2019-03-08T10:20:57.024Z,0.90
2019-03-08T10:23:44.241Z,1.37
2019-03-08T10:26:26.526Z,1.13
2019-03-08T10:29:14.635Z,0.80
2019-03-08T10:32:18.274Z,0.83
2019-03-08T10:35:20.488Z,1.00
2019-03-08T10:37:52.585Z,0.90
2019-03-08T10:40:40.143Z,0.80
2019-03-08T10:43:17.326Z,1.30
2019-03-08T10:46:15.683Z,1.30
2019-03-08T10:48:49.505Z,0.90
2019-03-08T10:51:33.696Z,1.10
2019-03-08T10:54:13.707Z,1.30
2019-03-08T10:57:00.596Z,0.90
2019-03-08T10:59:37.790Z,0.90
2019-03-08T11:02:27.438Z,1.10
2019-03-08T11:05:04.791Z,2.03
2019-03-08T11:07:53.285Z,1.20
2019-03-08T11:10:33.399Z,1.00
2019-03-08T11:13:17.615Z,1.30
2019-03-08T11:15:56.782Z,0.90
2019-03-08T11:19:08.729Z,1.13
2019-03-08T11:21:52.903Z,1.50
2019-03-08T11:24:43.400Z,1.10
2019-03-08T11:27:34.519Z,1.00
2019-03-08T11:30:21.776Z,1.10
2019-03-08T11:33:13.464Z,0.90
2019-03-08T11:35:50.015Z,1.33
2019-03-08T11:38:25.194Z,1.63
2019-03-08T11:40:59.934Z,1.40
2019-03-08T11:43:35.985Z,0.87
2019-03-08T11:46:27.528Z,1.97
2019-03-08T11:49:21.492Z,1.07
2019-03-08T11:52:16.087Z,1.00
2019-03-08T11:55:03.367Z,0.90
2019-03-08T11:57:52.153Z,0.80
2019-03-08T12:00:46.480Z,1.10
2019-03-08T12:03:33.256Z,1.30
2019-03-08T12:06:21.387Z,1.10
2019-03-08T12:08:57.522Z,1.00
2019-03-08T12:11:56.267Z,1.30
2019-03-08T12:14:47.193Z,1.17
2019-03-08T12:17:34.511Z,1.67
2019-03-08T12:20:32.005Z,2.57
2019-03-08T12:23:08.989Z,1.00
2019-03-08T12:25:50.533Z,1.30
2019-03-08T12:28:33.187Z,0.97
2019-03-08T12:31:17.507Z,1.10
2019-03-08T12:34:04.250Z,1.00
2019-03-08T12:36:43.518Z,1.17
2019-03-08T12:39:29.771Z,1.00
2019-03-08T12:42:36.895Z,1.03
2019-03-08T12:45:14.912Z,1.00
2019-03-08T12:48:07.363Z,1.10
2019-03-08T12:50:54.054Z,0.90
2019-03-08T12:53:48.776Z,1.10
2019-03-08T12:56:42.976Z,1.00
2019-03-08T12:59:22.146Z,1.00
2019-03-08T13:02:28.653Z,1.20
2019-03-08T13:05:35.549Z,0.70
2019-03-08T13:08:30.137Z,0.90
2019-03-08T13:10:59.210Z,0.83
2019-03-08T13:13:28.304Z,0.80
2019-03-08T13:15:57.376Z,0.70
2019-03-08T13:18:26.739Z,0.77
2019-03-08T13:20:55.823Z,1.10
2019-03-08T13:23:25.248Z,0.90
2019-03-08T13:25:54.632Z,0.60
2019-03-08T13:28:23.729Z,0.80
2019-03-08T13:30:53.135Z,0.90
2019-03-08T13:33:22.306Z,1.03
2019-03-08T13:35:51.442Z,0.97
2019-03-08T13:38:21.195Z,1.10
2019-03-08T13:40:50.577Z,0.80
2019-03-08T13:43:19.675Z,0.80
2019-03-08T13:45:48.736Z,0.70
2019-03-08T13:48:18.241Z,0.80
2019-03-08T13:50:47.675Z,0.60
2019-03-08T13:53:16.867Z,0.60
2019-03-08T13:55:46.348Z,0.80
2019-03-08T13:58:16.114Z,1.10
2019-03-08T14:00:45.706Z,0.90
2019-03-08T14:03:14.802Z,1.10
2019-03-08T14:05:44.204Z,0.90
2019-03-08T14:08:13.563Z,0.70
2019-03-08T14:10:43.415Z,0.90
2019-03-08T14:13:12.536Z,1.13
2019-03-08T14:15:41.611Z,0.80
2019-03-08T14:18:11.075Z,1.10
2019-03-08T14:20:40.497Z,1.00
2019-03-08T14:23:10.006Z,1.10
2019-03-08T14:25:39.705Z,1.00
2019-03-08T14:28:09.336Z,0.90
2019-03-08T14:30:45.403Z,1.00
2019-03-08T14:33:14.809Z,1.10
2019-03-08T14:35:43.870Z,0.80
2019-03-08T14:38:13.031Z,1.07
2019-03-08T14:40:59.617Z,0.97
2019-03-08T14:43:59.859Z,1.17
2019-03-08T14:46:36.920Z,1.07
2019-03-08T14:49:07.759Z,1.30
2019-03-08T14:51:37.391Z,1.37
2019-03-08T14:54:09.883Z,1.00
2019-03-08T14:56:37.724Z,1.00
2019-03-08T14:59:07.083Z,0.90
2019-03-08T15:01:39.977Z,1.10
2019-03-08T15:04:07.447Z,1.47
2019-03-08T15:06:36.630Z,1.10
2019-03-08T15:09:11.097Z,0.90
2019-03-08T15:11:40.355Z,1.57
2019-03-08T15:14:09.799Z,1.00
2019-03-08T15:16:39.969Z,1.03
2019-03-08T15:19:09.552Z,0.90
2019-03-08T15:21:48.056Z,0.80
2019-03-08T15:24:10.073Z,0.70
2019-03-08T15:26:39.310Z,0.73
2019-03-08T15:29:08.466Z,0.70
2019-03-08T15:31:37.562Z,0.60
2019-03-08T15:34:07.234Z,0.73
2019-03-08T15:36:36.665Z,0.60
2019-03-08T15:39:06.634Z,0.60
2019-03-08T15:41:37.070Z,0.70
2019-03-08T15:44:06.525Z,0.60
2019-03-08T15:46:35.805Z,0.60
2019-03-08T15:49:05.208Z,0.60
2019-03-08T15:51:34.296Z,0.70
2019-03-08T15:54:04.273Z,0.87
2019-03-08T15:56:33.415Z,0.97
2019-03-08T15:59:03.450Z,0.97
2019-03-08T16:01:32.776Z,1.20
2019-03-08T16:04:01.930Z,1.10
2019-03-08T16:06:31.041Z,1.40
2019-03-08T16:09:00.922Z,1.50
2019-03-08T16:11:30.675Z,2.20
2019-03-08T16:14:08.554Z,1.80
2019-03-08T16:16:31.940Z,1.60
2019-03-08T16:19:02.649Z,0.90
2019-03-08T16:21:31.748Z,0.83
2019-03-08T16:24:01.216Z,1.50
2019-03-08T16:26:30.350Z,1.10
2019-03-08T16:28:59.455Z,0.90
2019-03-08T16:31:50.210Z,1.00
2019-03-08T16:34:19.857Z,1.20
2019-03-08T16:37:07.198Z,1.30
2019-03-08T16:40:07.857Z,1.90
2019-03-08T16:42:58.669Z,1.30
2019-03-08T16:45:54.920Z,1.10
2019-03-08T16:48:28.399Z,1.10
2019-03-08T16:51:20.011Z,1.60
2019-03-08T16:54:19.870Z,1.10
2019-03-08T16:56:59.903Z,1.23
2019-03-08T16:59:47.145Z,0.70
2019-03-08T17:02:35.337Z,0.60
2019-03-08T17:05:35.542Z,0.50
2019-03-08T17:08:23.383Z,0.70
2019-03-08T17:11:15.620Z,0.60
2019-03-08T17:13:51.777Z,0.60
2019-03-08T17:16:38.429Z,0.60
2019-03-08T17:19:26.624Z,0.70
2019-03-08T17:22:12.779Z,0.90
2019-03-08T17:25:09.968Z,0.70
2019-03-08T17:28:00.858Z,0.80
2019-03-08T17:30:55.435Z,0.80
2019-03-08T17:33:42.610Z,2.10
2019-03-08T17:36:18.866Z,1.77
2019-03-08T17:38:54.906Z,1.30
2019-03-08T17:41:31.889Z,2.90
2019-03-08T17:44:25.634Z,3.27
2019-03-08T17:47:13.765Z,3.37
2019-03-08T17:49:54.692Z,2.30
2019-03-08T17:52:41.826Z,2.90
2019-03-08T17:55:21.244Z,3.10
2019-03-08T17:58:08.386Z,3.40
2019-03-08T18:00:54.874Z,4.13
2019-03-08T18:03:29.215Z,3.73
2019-03-08T18:06:23.336Z,2.30
2019-03-08T18:09:23.577Z,1.60
2019-03-08T18:12:10.471Z,1.20
2019-03-08T18:14:58.629Z,1.10
2019-03-08T18:17:35.942Z,2.00
2019-03-08T18:20:24.911Z,1.60
2019-03-08T18:23:13.760Z,1.40
2019-03-08T18:26:05.355Z,1.10
2019-03-08T18:28:46.575Z,1.03
2019-03-08T18:31:47.064Z,1.10
2019-03-08T18:34:34.423Z,1.30
2019-03-08T18:37:17.772Z,1.40
2019-03-08T18:39:57.905Z,1.20
2019-03-08T18:42:43.315Z,1.20
2019-03-08T18:45:50.567Z,1.30
2019-03-08T18:48:32.091Z,1.10
2019-03-08T18:51:26.251Z,1.00
2019-03-08T18:54:26.721Z,1.60
2019-03-08T18:57:24.021Z,1.80
2019-03-08T19:00:08.516Z,1.80
2019-03-08T19:03:07.342Z,1.43
2019-03-08T19:06:04.660Z,1.40
2019-03-08T19:08:42.574Z,1.23
2019-03-08T19:11:33.751Z,1.47
2019-03-08T19:14:13.960Z,1.40
2019-03-08T19:17:17.882Z,1.20
2019-03-08T19:20:06.394Z,1.20
2019-03-08T19:22:54.553Z,1.00
2019-03-08T19:25:29.969Z,1.40
2019-03-08T19:28:14.959Z,2.00
2019-03-08T19:31:15.371Z,2.10
2019-03-08T19:34:00.963Z,2.10
2019-03-08T19:36:48.272Z,3.60
2019-03-08T19:39:35.765Z,5.50
2019-03-08T19:42:26.202Z,5.77
2019-03-08T19:45:22.082Z,4.03
2019-03-08T19:47:59.103Z,3.63
2019-03-08T19:50:46.072Z,3.17
2019-03-08T19:53:52.769Z,2.47
2019-03-08T19:56:46.942Z,3.00
2019-03-08T19:59:25.224Z,3.13
2019-03-08T20:02:12.621Z,3.13
2019-03-08T20:04:59.944Z,5.63
2019-03-08T20:07:54.718Z,11.43
2019-03-08T20:10:40.061Z,5.70
2019-03-08T20:13:27.550Z,6.40
2019-03-08T20:16:19.003Z,5.20
2019-03-08T20:19:05.884Z,5.47
2019-03-08T20:21:57.091Z,4.97
2019-03-08T20:24:51.643Z,4.50
2019-03-08T20:27:42.906Z,3.93
2019-03-08T20:30:38.008Z,4.13
2019-03-08T20:33:26.204Z,7.90
2019-03-08T20:36:20.688Z,6.53
2019-03-08T20:39:12.214Z,7.73
2019-03-08T20:41:55.728Z,7.93
2019-03-08T20:44:47.665Z,5.57
2019-03-08T20:47:21.671Z,5.40
2019-03-08T20:49:51.459Z,4.17
2019-03-08T20:52:20.731Z,3.57
2019-03-08T20:54:50.455Z,3.63
2019-03-08T20:57:19.821Z,3.40
2019-03-08T20:59:49.280Z,4.07
2019-03-08T21:02:18.843Z,5.03
2019-03-08T21:04:48.702Z,5.40
2019-03-08T21:07:18.045Z,6.00
2019-03-08T21:09:47.435Z,6.47
2019-03-08T21:12:16.519Z,9.03
2019-03-08T21:14:45.987Z,10.63
2019-03-08T21:17:15.396Z,13.33
2019-03-08T21:19:45.155Z,9.03
2019-03-08T21:22:14.230Z,6.40
2019-03-08T21:24:43.627Z,5.40
2019-03-08T21:27:14.304Z,5.77
2019-03-08T21:29:43.364Z,6.10
2019-03-08T21:32:12.514Z,4.10
2019-03-08T21:34:42.070Z,3.17
2019-03-08T21:37:11.141Z,3.37
2019-03-08T21:39:40.330Z,3.33
2019-03-08T21:42:09.748Z,3.20
2019-03-08T21:44:39.519Z,2.70
2019-03-08T21:47:08.924Z,2.70
2019-03-08T21:49:39.452Z,2.80
2019-03-08T21:52:08.945Z,2.47
2019-03-08T21:54:39.191Z,2.90
2019-03-08T21:57:08.298Z,2.60
2019-03-08T21:59:37.759Z,2.60
2019-03-08T22:02:07.331Z,2.70
2019-03-08T22:04:43.077Z,2.90
2019-03-08T22:07:12.642Z,3.00
2019-03-08T22:09:46.696Z,2.60
2019-03-08T22:12:15.794Z,2.77
2019-03-08T22:14:45.271Z,2.33
2019-03-08T22:17:14.785Z,2.43
2019-03-08T22:19:44.016Z,2.27
2019-03-08T22:22:13.098Z,2.77
2019-03-08T22:24:42.615Z,2.50
2019-03-08T22:27:11.860Z,2.50
2019-03-08T22:29:41.038Z,2.30
2019-03-08T22:32:10.618Z,2.23
2019-03-08T22:34:40.076Z,2.47
2019-03-08T22:37:09.171Z,2.37
2019-03-08T22:39:38.506Z,2.30
2019-03-08T22:42:07.640Z,2.57
2019-03-08T22:44:36.702Z,2.00
2019-03-08T22:47:05.794Z,2.10
2019-03-08T22:49:34.867Z,2.10
2019-03-08T22:52:04.267Z,2.20
2019-03-08T22:54:33.624Z,2.70
2019-03-08T22:57:02.707Z,2.63
2019-03-08T22:59:32.477Z,2.90
2019-03-08T23:02:07.239Z,3.07
2019-03-08T23:04:36.789Z,2.23
2019-03-08T23:07:06.244Z,2.57
2019-03-08T23:09:35.547Z,2.20
2019-03-08T23:12:04.938Z,2.40
2019-03-08T23:14:34.305Z,2.50
2019-03-08T23:17:04.044Z,2.30
2019-03-08T23:19:33.435Z,2.40
2019-03-08T23:22:02.938Z,2.30
2019-03-08T23:24:31.983Z,2.03
2019-03-08T23:27:11.195Z,1.90
2019-03-08T23:30:02.035Z,2.30
2019-03-08T23:32:34.468Z,2.10
2019-03-08T23:35:03.543Z,2.10
2019-03-08T23:37:32.628Z,1.87
2019-03-08T23:40:02.039Z,1.90
2019-03-08T23:42:31.678Z,2.13
2019-03-08T23:45:00.771Z,2.03
2019-03-08T23:47:29.998Z,2.23
2019-03-08T23:49:59.080Z,2.20
2019-03-08T23:52:28.234Z,2.00
2019-03-08T23:54:57.662Z,1.57
2019-03-08T23:57:26.794Z,1.93
2019-03-08T23:59:55.850Z,2.20
